sensor_id;sensor_type;location;lat;lon;timestamp;P1;durP1;ratioP1;P2;durP2;ratioP2
31126;SDS011;17775;57.948;12.514;2024-02-14T00:00:47;0.22;;;0.20;;
31126;SDS011;17775;57.948;12.514;2024-02-14T00:03:13;0.20;;;0.20;;
31126;SDS011;17775;57.948;12.514;2024-02-14T00:05:40;0.20;;;0.20;;
31126;SDS011;17775;57.948;12.514;2024-02-14T00:08:07;0.20;;;0.20;;
31126;SDS011;17775;57.948;12.514;2024-02-14T00:10:34;0.20;;;0.20;;
31126;SDS011;17775;57.948;12.514;2024-02-14T00:13:00;0.20;;;0.20;;
31126;SDS011;17775;57.948;12.514;2024-02-14T00:15:28;0.20;;;0.20;;
31126;SDS011;17775;57.948;12.514;2024-02-14T00:17:55;0.22;;;0.20;;
31126;SDS011;17775;57.948;12.514;2024-02-14T00:20:22;0.30;;;0.30;;
31126;SDS011;17775;57.948;12.514;2024-02-14T00:22:48;0.40;;;0.30;;
31126;SDS011;17775;57.948;12.514;2024-02-14T00:25:17;0.25;;;0.25;;
31126;SDS011;17775;57.948;12.514;2024-02-14T00:27:46;0.20;;;0.20;;
31126;SDS011;17775;57.948;12.514;2024-02-14T00:30:13;0.30;;;0.30;;
31126;SDS011;17775;57.948;12.514;2024-02-14T00:32:40;0.30;;;0.30;;
31126;SDS011;17775;57.948;12.514;2024-02-14T00:35:07;0.85;;;0.50;;
31126;SDS011;17775;57.948;12.514;2024-02-14T00:37:33;0.50;;;0.40;;
31126;SDS011;17775;57.948;12.514;2024-02-14T00:40:00;1.30;;;0.50;;
31126;SDS011;17775;57.948;12.514;2024-02-14T00:42:27;1.33;;;0.50;;
31126;SDS011;17775;57.948;12.514;2024-02-14T00:44:53;0.77;;;0.60;;
31126;SDS011;17775;57.948;12.514;2024-02-14T00:47:20;0.77;;;0.50;;
31126;SDS011;17775;57.948;12.514;2024-02-14T00:49:46;1.05;;;0.43;;
31126;SDS011;17775;57.948;12.514;2024-02-14T00:52:13;0.70;;;0.50;;
31126;SDS011;17775;57.948;12.514;2024-02-14T00:54:40;0.47;;;0.40;;
31126;SDS011;17775;57.948;12.514;2024-02-14T00:57:07;0.60;;;0.40;;
31126;SDS011;17775;57.948;12.514;2024-02-14T00:59:33;0.43;;;0.30;;
31126;SDS011;17775;57.948;12.514;2024-02-14T01:02:00;0.55;;;0.40;;
31126;SDS011;17775;57.948;12.514;2024-02-14T01:04:27;0.30;;;0.30;;
31126;SDS011;17775;57.948;12.514;2024-02-14T01:06:53;0.50;;;0.28;;
31126;SDS011;17775;57.948;12.514;2024-02-14T01:09:20;0.55;;;0.35;;
31126;SDS011;17775;57.948;12.514;2024-02-14T01:11:46;0.60;;;0.40;;
31126;SDS011;17775;57.948;12.514;2024-02-14T01:14:15;0.57;;;0.30;;
31126;SDS011;17775;57.948;12.514;2024-02-14T01:16:42;0.52;;;0.30;;
31126;SDS011;17775;57.948;12.514;2024-02-14T01:19:10;2.03;;;0.50;;
31126;SDS011;17775;57.948;12.514;2024-02-14T01:21:36;0.75;;;0.50;;
31126;SDS011;17775;57.948;12.514;2024-02-14T01:24:03;0.70;;;0.40;;
31126;SDS011;17775;57.948;12.514;2024-02-14T01:26:31;0.50;;;0.40;;
31126;SDS011;17775;57.948;12.514;2024-02-14T01:29:01;0.32;;;0.30;;
31126;SDS011;17775;57.948;12.514;2024-02-14T01:31:27;0.60;;;0.40;;
31126;SDS011;17775;57.948;12.514;2024-02-14T01:33:54;0.30;;;0.30;;
31126;SDS011;17775;57.948;12.514;2024-02-14T01:36:21;0.50;;;0.40;;
31126;SDS011;17775;57.948;12.514;2024-02-14T01:38:49;0.20;;;0.20;;
31126;SDS011;17775;57.948;12.514;2024-02-14T01:41:15;0.20;;;0.20;;
31126;SDS011;17775;57.948;12.514;2024-02-14T01:43:41;0.35;;;0.35;;
31126;SDS011;17775;57.948;12.514;2024-02-14T01:46:08;0.20;;;0.20;;
31126;SDS011;17775;57.948;12.514;2024-02-14T01:48:35;0.40;;;0.30;;
31126;SDS011;17775;57.948;12.514;2024-02-14T01:51:02;1.13;;;0.30;;
31126;SDS011;17775;57.948;12.514;2024-02-14T01:53:30;0.35;;;0.30;;
31126;SDS011;17775;57.948;12.514;2024-02-14T01:55:58;0.63;;;0.40;;
31126;SDS011;17775;57.948;12.514;2024-02-14T01:58:25;0.50;;;0.40;;
31126;SDS011;17775;57.948;12.514;2024-02-14T02:00:52;0.90;;;0.50;;
31126;SDS011;17775;57.948;12.514;2024-02-14T02:03:23;0.57;;;0.40;;
31126;SDS011;17775;57.948;12.514;2024-02-14T02:05:50;0.30;;;0.30;;
31126;SDS011;17775;57.948;12.514;2024-02-14T02:08:17;0.30;;;0.30;;
31126;SDS011;17775;57.948;12.514;2024-02-14T02:10:44;0.30;;;0.30;;
31126;SDS011;17775;57.948;12.514;2024-02-14T02:13:10;0.55;;;0.52;;
31126;SDS011;17775;57.948;12.514;2024-02-14T02:15:37;0.50;;;0.30;;
31126;SDS011;17775;57.948;12.514;2024-02-14T02:18:04;0.57;;;0.40;;
31126;SDS011;17775;57.948;12.514;2024-02-14T02:20:32;1.15;;;0.55;;
31126;SDS011;17775;57.948;12.514;2024-02-14T02:22:59;3.70;;;0.70;;
31126;SDS011;17775;57.948;12.514;2024-02-14T02:25:26;1.55;;;0.85;;
31126;SDS011;17775;57.948;12.514;2024-02-14T02:27:53;1.77;;;0.68;;
31126;SDS011;17775;57.948;12.514;2024-02-14T02:30:23;0.50;;;0.50;;
31126;SDS011;17775;57.948;12.514;2024-02-14T02:32:50;0.40;;;0.40;;
31126;SDS011;17775;57.948;12.514;2024-02-14T02:35:17;0.50;;;0.40;;
31126;SDS011;17775;57.948;12.514;2024-02-14T02:37:47;0.50;;;0.40;;
31126;SDS011;17775;57.948;12.514;2024-02-14T02:40:17;0.60;;;0.40;;
31126;SDS011;17775;57.948;12.514;2024-02-14T02:42:43;0.40;;;0.40;;
31126;SDS011;17775;57.948;12.514;2024-02-14T02:45:11;0.28;;;0.28;;
31126;SDS011;17775;57.948;12.514;2024-02-14T02:47:38;0.40;;;0.30;;
31126;SDS011;17775;57.948;12.514;2024-02-14T02:50:05;0.30;;;0.30;;
31126;SDS011;17775;57.948;12.514;2024-02-14T02:52:32;0.25;;;0.25;;
31126;SDS011;17775;57.948;12.514;2024-02-14T02:54:58;0.52;;;0.30;;
31126;SDS011;17775;57.948;12.514;2024-02-14T02:57:27;0.63;;;0.30;;
31126;SDS011;17775;57.948;12.514;2024-02-14T02:59:53;0.30;;;0.30;;
31126;SDS011;17775;57.948;12.514;2024-02-14T03:02:20;0.30;;;0.30;;
31126;SDS011;17775;57.948;12.514;2024-02-14T03:04:47;0.35;;;0.30;;
31126;SDS011;17775;57.948;12.514;2024-02-14T03:07:19;0.25;;;0.25;;
31126;SDS011;17775;57.948;12.514;2024-02-14T03:09:45;0.30;;;0.30;;
31126;SDS011;17775;57.948;12.514;2024-02-14T03:12:12;0.30;;;0.30;;
31126;SDS011;17775;57.948;12.514;2024-02-14T03:14:42;0.50;;;0.40;;
31126;SDS011;17775;57.948;12.514;2024-02-14T03:17:10;0.20;;;0.20;;
31126;SDS011;17775;57.948;12.514;2024-02-14T03:19:37;0.32;;;0.30;;
31126;SDS011;17775;57.948;12.514;2024-02-14T03:22:05;0.30;;;0.30;;
31126;SDS011;17775;57.948;12.514;2024-02-14T03:24:35;0.38;;;0.30;;
31126;SDS011;17775;57.948;12.514;2024-02-14T03:27:07;0.57;;;0.40;;
31126;SDS011;17775;57.948;12.514;2024-02-14T03:29:34;0.20;;;0.20;;
31126;SDS011;17775;57.948;12.514;2024-02-14T03:32:02;0.30;;;0.30;;
31126;SDS011;17775;57.948;12.514;2024-02-14T03:34:31;0.30;;;0.30;;
31126;SDS011;17775;57.948;12.514;2024-02-14T03:37:02;0.40;;;0.40;;
31126;SDS011;17775;57.948;12.514;2024-02-14T03:39:29;0.30;;;0.30;;
31126;SDS011;17775;57.948;12.514;2024-02-14T03:41:57;0.20;;;0.20;;
31126;SDS011;17775;57.948;12.514;2024-02-14T03:44:25;0.20;;;0.20;;
31126;SDS011;17775;57.948;12.514;2024-02-14T03:46:51;0.25;;;0.25;;
31126;SDS011;17775;57.948;12.514;2024-02-14T03:49:17;0.30;;;0.30;;
31126;SDS011;17775;57.948;12.514;2024-02-14T03:51:44;0.20;;;0.20;;
31126;SDS011;17775;57.948;12.514;2024-02-14T03:54:11;0.30;;;0.30;;
31126;SDS011;17775;57.948;12.514;2024-02-14T03:56:38;0.40;;;0.30;;
31126;SDS011;17775;57.948;12.514;2024-02-14T03:59:05;0.30;;;0.30;;
31126;SDS011;17775;57.948;12.514;2024-02-14T04:01:32;0.47;;;0.30;;
31126;SDS011;17775;57.948;12.514;2024-02-14T04:03:59;0.30;;;0.30;;
31126;SDS011;17775;57.948;12.514;2024-02-14T04:06:25;0.35;;;0.30;;
31126;SDS011;17775;57.948;12.514;2024-02-14T04:08:53;0.55;;;0.30;;
31126;SDS011;17775;57.948;12.514;2024-02-14T04:11:20;0.63;;;0.55;;
31126;SDS011;17775;57.948;12.514;2024-02-14T04:13:46;0.30;;;0.30;;
31126;SDS011;17775;57.948;12.514;2024-02-14T04:16:13;0.40;;;0.30;;
31126;SDS011;17775;57.948;12.514;2024-02-14T04:18:39;0.55;;;0.40;;
31126;SDS011;17775;57.948;12.514;2024-02-14T04:21:09;0.30;;;0.22;;
31126;SDS011;17775;57.948;12.514;2024-02-14T04:23:36;0.47;;;0.30;;
31126;SDS011;17775;57.948;12.514;2024-02-14T04:26:02;0.43;;;0.30;;
31126;SDS011;17775;57.948;12.514;2024-02-14T04:28:29;0.43;;;0.28;;
31126;SDS011;17775;57.948;12.514;2024-02-14T04:30:56;0.30;;;0.30;;
31126;SDS011;17775;57.948;12.514;2024-02-14T04:33:22;0.30;;;0.30;;
31126;SDS011;17775;57.948;12.514;2024-02-14T04:35:49;0.30;;;0.30;;
31126;SDS011;17775;57.948;12.514;2024-02-14T04:38:16;0.30;;;0.30;;
31126;SDS011;17775;57.948;12.514;2024-02-14T04:40:46;0.40;;;0.40;;
31126;SDS011;17775;57.948;12.514;2024-02-14T04:43:12;0.30;;;0.30;;
31126;SDS011;17775;57.948;12.514;2024-02-14T04:45:39;0.30;;;0.30;;
31126;SDS011;17775;57.948;12.514;2024-02-14T04:48:05;0.30;;;0.30;;
31126;SDS011;17775;57.948;12.514;2024-02-14T04:50:34;0.30;;;0.30;;
31126;SDS011;17775;57.948;12.514;2024-02-14T04:53:01;0.73;;;0.40;;
31126;SDS011;17775;57.948;12.514;2024-02-14T04:55:27;0.68;;;0.40;;
31126;SDS011;17775;57.948;12.514;2024-02-14T04:57:55;0.30;;;0.30;;
31126;SDS011;17775;57.948;12.514;2024-02-14T05:00:22;0.30;;;0.30;;
31126;SDS011;17775;57.948;12.514;2024-02-14T05:02:48;0.30;;;0.30;;
31126;SDS011;17775;57.948;12.514;2024-02-14T05:05:16;0.30;;;0.30;;
31126;SDS011;17775;57.948;12.514;2024-02-14T05:07:42;0.30;;;0.30;;
31126;SDS011;17775;57.948;12.514;2024-02-14T05:10:11;0.43;;;0.30;;
31126;SDS011;17775;57.948;12.514;2024-02-14T05:12:37;0.30;;;0.30;;
31126;SDS011;17775;57.948;12.514;2024-02-14T05:15:04;0.30;;;0.30;;
31126;SDS011;17775;57.948;12.514;2024-02-14T05:17:30;0.25;;;0.25;;
31126;SDS011;17775;57.948;12.514;2024-02-14T05:19:57;0.22;;;0.22;;
31126;SDS011;17775;57.948;12.514;2024-02-14T05:22:27;0.32;;;0.30;;
31126;SDS011;17775;57.948;12.514;2024-02-14T05:24:57;0.30;;;0.30;;
31126;SDS011;17775;57.948;12.514;2024-02-14T05:27:24;0.38;;;0.38;;
31126;SDS011;17775;57.948;12.514;2024-02-14T05:29:50;0.20;;;0.20;;
31126;SDS011;17775;57.948;12.514;2024-02-14T05:32:17;0.28;;;0.28;;
31126;SDS011;17775;57.948;12.514;2024-02-14T05:34:43;0.30;;;0.30;;
31126;SDS011;17775;57.948;12.514;2024-02-14T05:37:10;0.45;;;0.30;;
31126;SDS011;17775;57.948;12.514;2024-02-14T05:39:36;0.30;;;0.30;;
31126;SDS011;17775;57.948;12.514;2024-02-14T05:42:03;0.25;;;0.25;;
31126;SDS011;17775;57.948;12.514;2024-02-14T05:44:33;0.40;;;0.40;;
31126;SDS011;17775;57.948;12.514;2024-02-14T05:47:00;1.23;;;0.73;;
31126;SDS011;17775;57.948;12.514;2024-02-14T05:49:26;0.80;;;0.50;;
31126;SDS011;17775;57.948;12.514;2024-02-14T05:51:53;0.38;;;0.38;;
31126;SDS011;17775;57.948;12.514;2024-02-14T05:54:19;0.30;;;0.30;;
31126;SDS011;17775;57.948;12.514;2024-02-14T05:56:46;0.38;;;0.38;;
31126;SDS011;17775;57.948;12.514;2024-02-14T05:59:13;0.40;;;0.40;;
31126;SDS011;17775;57.948;12.514;2024-02-14T06:01:40;0.32;;;0.30;;
31126;SDS011;17775;57.948;12.514;2024-02-14T06:04:06;0.40;;;0.40;;
31126;SDS011;17775;57.948;12.514;2024-02-14T06:06:33;0.30;;;0.30;;
31126;SDS011;17775;57.948;12.514;2024-02-14T06:08:59;0.47;;;0.47;;
31126;SDS011;17775;57.948;12.514;2024-02-14T06:11:26;0.35;;;0.35;;
31126;SDS011;17775;57.948;12.514;2024-02-14T06:13:53;0.50;;;0.50;;
31126;SDS011;17775;57.948;12.514;2024-02-14T06:16:19;0.32;;;0.32;;
31126;SDS011;17775;57.948;12.514;2024-02-14T06:18:48;0.30;;;0.30;;
31126;SDS011;17775;57.948;12.514;2024-02-14T06:21:15;0.30;;;0.30;;
31126;SDS011;17775;57.948;12.514;2024-02-14T06:23:42;0.30;;;0.30;;
31126;SDS011;17775;57.948;12.514;2024-02-14T06:26:08;0.57;;;0.45;;
31126;SDS011;17775;57.948;12.514;2024-02-14T06:28:35;0.30;;;0.30;;
31126;SDS011;17775;57.948;12.514;2024-02-14T06:31:01;0.40;;;0.30;;
31126;SDS011;17775;57.948;12.514;2024-02-14T06:33:28;0.50;;;0.35;;
31126;SDS011;17775;57.948;12.514;2024-02-14T06:35:55;0.40;;;0.30;;
31126;SDS011;17775;57.948;12.514;2024-02-14T06:38:22;1.02;;;0.70;;
31126;SDS011;17775;57.948;12.514;2024-02-14T06:40:49;0.60;;;0.50;;
31126;SDS011;17775;57.948;12.514;2024-02-14T06:43:15;0.38;;;0.38;;
31126;SDS011;17775;57.948;12.514;2024-02-14T06:45:42;0.50;;;0.40;;
31126;SDS011;17775;57.948;12.514;2024-02-14T06:48:09;0.35;;;0.35;;
31126;SDS011;17775;57.948;12.514;2024-02-14T06:50:36;0.52;;;0.43;;
31126;SDS011;17775;57.948;12.514;2024-02-14T06:53:03;0.50;;;0.43;;
31126;SDS011;17775;57.948;12.514;2024-02-14T06:55:29;0.40;;;0.40;;
31126;SDS011;17775;57.948;12.514;2024-02-14T06:57:59;0.57;;;0.38;;
31126;SDS011;17775;57.948;12.514;2024-02-14T07:00:26;0.30;;;0.30;;
31126;SDS011;17775;57.948;12.514;2024-02-14T07:02:52;0.40;;;0.40;;
31126;SDS011;17775;57.948;12.514;2024-02-14T07:05:19;0.38;;;0.30;;
31126;SDS011;17775;57.948;12.514;2024-02-14T07:07:45;0.52;;;0.40;;
31126;SDS011;17775;57.948;12.514;2024-02-14T07:10:12;0.35;;;0.35;;
31126;SDS011;17775;57.948;12.514;2024-02-14T07:12:38;0.45;;;0.43;;
31126;SDS011;17775;57.948;12.514;2024-02-14T07:15:05;0.38;;;0.38;;
31126;SDS011;17775;57.948;12.514;2024-02-14T07:17:32;0.50;;;0.40;;
31126;SDS011;17775;57.948;12.514;2024-02-14T07:19:59;0.50;;;0.47;;
31126;SDS011;17775;57.948;12.514;2024-02-14T07:22:26;0.40;;;0.40;;
31126;SDS011;17775;57.948;12.514;2024-02-14T07:24:53;0.45;;;0.45;;
31126;SDS011;17775;57.948;12.514;2024-02-14T07:27:20;0.47;;;0.40;;
31126;SDS011;17775;57.948;12.514;2024-02-14T07:29:47;0.43;;;0.40;;
31126;SDS011;17775;57.948;12.514;2024-02-14T07:32:14;0.47;;;0.47;;
31126;SDS011;17775;57.948;12.514;2024-02-14T07:34:41;0.60;;;0.50;;
31126;SDS011;17775;57.948;12.514;2024-02-14T07:37:07;0.70;;;0.60;;
31126;SDS011;17775;57.948;12.514;2024-02-14T07:39:34;0.50;;;0.40;;
31126;SDS011;17775;57.948;12.514;2024-02-14T07:42:04;0.55;;;0.40;;
31126;SDS011;17775;57.948;12.514;2024-02-14T07:44:31;0.57;;;0.50;;
31126;SDS011;17775;57.948;12.514;2024-02-14T07:46:58;0.75;;;0.50;;
31126;SDS011;17775;57.948;12.514;2024-02-14T07:49:29;0.57;;;0.40;;
31126;SDS011;17775;57.948;12.514;2024-02-14T07:51:55;0.93;;;0.68;;
31126;SDS011;17775;57.948;12.514;2024-02-14T07:54:22;0.50;;;0.43;;
31126;SDS011;17775;57.948;12.514;2024-02-14T07:56:51;0.45;;;0.40;;
31126;SDS011;17775;57.948;12.514;2024-02-14T07:59:18;0.50;;;0.43;;
31126;SDS011;17775;57.948;12.514;2024-02-14T08:01:44;0.50;;;0.47;;
31126;SDS011;17775;57.948;12.514;2024-02-14T08:04:11;1.38;;;0.80;;
31126;SDS011;17775;57.948;12.514;2024-02-14T08:06:37;0.63;;;0.50;;
31126;SDS011;17775;57.948;12.514;2024-02-14T08:09:04;0.98;;;0.57;;
31126;SDS011;17775;57.948;12.514;2024-02-14T08:11:33;0.90;;;0.57;;
31126;SDS011;17775;57.948;12.514;2024-02-14T08:14:00;1.27;;;0.70;;
31126;SDS011;17775;57.948;12.514;2024-02-14T08:16:26;0.98;;;0.73;;
31126;SDS011;17775;57.948;12.514;2024-02-14T08:18:53;1.48;;;0.85;;
31126;SDS011;17775;57.948;12.514;2024-02-14T08:21:25;2.75;;;1.40;;
31126;SDS011;17775;57.948;12.514;2024-02-14T08:23:57;1.52;;;1.05;;
31126;SDS011;17775;57.948;12.514;2024-02-14T08:28:54;0.82;;;0.70;;
31126;SDS011;17775;57.948;12.514;2024-02-14T08:31:22;0.82;;;0.57;;
31126;SDS011;17775;57.948;12.514;2024-02-14T08:33:49;0.65;;;0.50;;
31126;SDS011;17775;57.948;12.514;2024-02-14T08:36:15;0.90;;;0.50;;
31126;SDS011;17775;57.948;12.514;2024-02-14T08:38:46;1.08;;;0.75;;
31126;SDS011;17775;57.948;12.514;2024-02-14T08:41:13;0.55;;;0.43;;
31126;SDS011;17775;57.948;12.514;2024-02-14T08:43:40;0.50;;;0.40;;
31126;SDS011;17775;57.948;12.514;2024-02-14T08:48:37;0.38;;;0.30;;
31126;SDS011;17775;57.948;12.514;2024-02-14T08:51:16;0.50;;;0.45;;
31126;SDS011;17775;57.948;12.514;2024-02-14T08:53:43;0.93;;;0.60;;
31126;SDS011;17775;57.948;12.514;2024-02-14T08:56:11;0.90;;;0.60;;
31126;SDS011;17775;57.948;12.514;2024-02-14T08:58:38;0.52;;;0.40;;
31126;SDS011;17775;57.948;12.514;2024-02-14T09:01:05;0.70;;;0.30;;
31126;SDS011;17775;57.948;12.514;2024-02-14T09:03:44;0.43;;;0.43;;
31126;SDS011;17775;57.948;12.514;2024-02-14T09:06:16;0.38;;;0.38;;
31126;SDS011;17775;57.948;12.514;2024-02-14T09:08:44;0.40;;;0.40;;
31126;SDS011;17775;57.948;12.514;2024-02-14T09:11:10;0.50;;;0.40;;
31126;SDS011;17775;57.948;12.514;2024-02-14T09:13:38;0.63;;;0.57;;
31126;SDS011;17775;57.948;12.514;2024-02-14T09:16:07;0.35;;;0.30;;
31126;SDS011;17775;57.948;12.514;2024-02-14T09:18:34;0.40;;;0.35;;
31126;SDS011;17775;57.948;12.514;2024-02-14T09:21:01;0.30;;;0.30;;
31126;SDS011;17775;57.948;12.514;2024-02-14T09:23:31;0.30;;;0.30;;
31126;SDS011;17775;57.948;12.514;2024-02-14T09:25:58;0.55;;;0.40;;
31126;SDS011;17775;57.948;12.514;2024-02-14T09:28:24;1.15;;;0.80;;
31126;SDS011;17775;57.948;12.514;2024-02-14T09:30:51;2.03;;;1.10;;
31126;SDS011;17775;57.948;12.514;2024-02-14T09:33:18;1.90;;;1.20;;
31126;SDS011;17775;57.948;12.514;2024-02-14T09:35:47;2.00;;;1.48;;
31126;SDS011;17775;57.948;12.514;2024-02-14T09:38:14;2.80;;;1.50;;
31126;SDS011;17775;57.948;12.514;2024-02-14T09:40:40;1.63;;;1.20;;
31126;SDS011;17775;57.948;12.514;2024-02-14T09:43:10;1.70;;;1.00;;
31126;SDS011;17775;57.948;12.514;2024-02-14T09:45:42;1.15;;;0.80;;
31126;SDS011;17775;57.948;12.514;2024-02-14T09:48:09;1.52;;;1.02;;
31126;SDS011;17775;57.948;12.514;2024-02-14T09:50:37;1.02;;;0.63;;
31126;SDS011;17775;57.948;12.514;2024-02-14T09:53:04;1.38;;;0.60;;
31126;SDS011;17775;57.948;12.514;2024-02-14T09:55:34;0.45;;;0.45;;
31126;SDS011;17775;57.948;12.514;2024-02-14T09:58:00;0.90;;;0.60;;
31126;SDS011;17775;57.948;12.514;2024-02-14T10:00:31;0.95;;;0.60;;
31126;SDS011;17775;57.948;12.514;2024-02-14T10:02:57;0.60;;;0.40;;
31126;SDS011;17775;57.948;12.514;2024-02-14T10:05:24;0.90;;;0.70;;
31126;SDS011;17775;57.948;12.514;2024-02-14T10:07:51;0.30;;;0.30;;
31126;SDS011;17775;57.948;12.514;2024-02-14T10:10:18;0.43;;;0.40;;
31126;SDS011;17775;57.948;12.514;2024-02-14T10:12:44;0.50;;;0.47;;
31126;SDS011;17775;57.948;12.514;2024-02-14T10:15:11;0.55;;;0.47;;
31126;SDS011;17775;57.948;12.514;2024-02-14T10:17:38;0.40;;;0.40;;
31126;SDS011;17775;57.948;12.514;2024-02-14T10:20:07;0.40;;;0.40;;
31126;SDS011;17775;57.948;12.514;2024-02-14T10:22:34;0.68;;;0.50;;
31126;SDS011;17775;57.948;12.514;2024-02-14T10:25:02;0.88;;;0.60;;
31126;SDS011;17775;57.948;12.514;2024-02-14T10:27:30;1.10;;;0.80;;
31126;SDS011;17775;57.948;12.514;2024-02-14T10:29:57;1.00;;;0.80;;
31126;SDS011;17775;57.948;12.514;2024-02-14T10:32:25;1.02;;;0.70;;
31126;SDS011;17775;57.948;12.514;2024-02-14T10:34:51;1.55;;;1.08;;
31126;SDS011;17775;57.948;12.514;2024-02-14T10:37:18;1.08;;;0.85;;
31126;SDS011;17775;57.948;12.514;2024-02-14T10:39:47;1.00;;;0.80;;
31126;SDS011;17775;57.948;12.514;2024-02-14T10:42:15;1.10;;;0.88;;
31126;SDS011;17775;57.948;12.514;2024-02-14T10:44:41;0.60;;;0.50;;
31126;SDS011;17775;57.948;12.514;2024-02-14T10:47:09;0.68;;;0.60;;
31126;SDS011;17775;57.948;12.514;2024-02-14T10:49:37;0.80;;;0.60;;
31126;SDS011;17775;57.948;12.514;2024-02-14T10:52:06;0.70;;;0.60;;
31126;SDS011;17775;57.948;12.514;2024-02-14T10:54:35;1.00;;;0.70;;
31126;SDS011;17775;57.948;12.514;2024-02-14T10:57:04;0.80;;;0.50;;
31126;SDS011;17775;57.948;12.514;2024-02-14T10:59:33;0.80;;;0.65;;
31126;SDS011;17775;57.948;12.514;2024-02-14T11:02:01;0.90;;;0.70;;
31126;SDS011;17775;57.948;12.514;2024-02-14T11:04:31;1.20;;;0.80;;
31126;SDS011;17775;57.948;12.514;2024-02-14T11:06:58;0.90;;;0.80;;
31126;SDS011;17775;57.948;12.514;2024-02-14T11:11:59;1.20;;;0.90;;
31126;SDS011;17775;57.948;12.514;2024-02-14T11:14:29;0.90;;;0.70;;
31126;SDS011;17775;57.948;12.514;2024-02-14T11:16:57;0.90;;;0.73;;
31126;SDS011;17775;57.948;12.514;2024-02-14T11:19:30;1.42;;;1.00;;
31126;SDS011;17775;57.948;12.514;2024-02-14T11:21:57;2.58;;;1.30;;
31126;SDS011;17775;57.948;12.514;2024-02-14T11:24:26;1.10;;;0.82;;
31126;SDS011;17775;57.948;12.514;2024-02-14T11:26:54;1.38;;;0.80;;
31126;SDS011;17775;57.948;12.514;2024-02-14T11:29:28;1.00;;;0.80;;
31126;SDS011;17775;57.948;12.514;2024-02-14T11:32:00;0.80;;;0.60;;
31126;SDS011;17775;57.948;12.514;2024-02-14T11:34:27;0.77;;;0.70;;
31126;SDS011;17775;57.948;12.514;2024-02-14T11:36:54;0.98;;;0.60;;
31126;SDS011;17775;57.948;12.514;2024-02-14T11:39:21;0.80;;;0.70;;
31126;SDS011;17775;57.948;12.514;2024-02-14T11:41:47;1.10;;;0.80;;
31126;SDS011;17775;57.948;12.514;2024-02-14T11:44:14;0.55;;;0.50;;
31126;SDS011;17775;57.948;12.514;2024-02-14T11:46:40;0.43;;;0.43;;
31126;SDS011;17775;57.948;12.514;2024-02-14T11:49:08;0.40;;;0.40;;
31126;SDS011;17775;57.948;12.514;2024-02-14T11:51:35;0.40;;;0.30;;
31126;SDS011;17775;57.948;12.514;2024-02-14T11:54:02;0.40;;;0.32;;
31126;SDS011;17775;57.948;12.514;2024-02-14T11:56:34;0.50;;;0.40;;
31126;SDS011;17775;57.948;12.514;2024-02-14T11:59:02;0.57;;;0.50;;
31126;SDS011;17775;57.948;12.514;2024-02-14T12:01:30;0.40;;;0.40;;
31126;SDS011;17775;57.948;12.514;2024-02-14T12:04:02;0.70;;;0.30;;
31126;SDS011;17775;57.948;12.514;2024-02-14T12:06:30;0.40;;;0.30;;
31126;SDS011;17775;57.948;12.514;2024-02-14T12:09:04;0.68;;;0.40;;
31126;SDS011;17775;57.948;12.514;2024-02-14T12:11:32;0.40;;;0.40;;
31126;SDS011;17775;57.948;12.514;2024-02-14T12:14:06;0.38;;;0.38;;
31126;SDS011;17775;57.948;12.514;2024-02-14T12:16:35;0.40;;;0.40;;
31126;SDS011;17775;57.948;12.514;2024-02-14T12:19:24;0.40;;;0.40;;
31126;SDS011;17775;57.948;12.514;2024-02-14T12:21:53;0.30;;;0.30;;
31126;SDS011;17775;57.948;12.514;2024-02-14T12:24:20;0.50;;;0.50;;
31126;SDS011;17775;57.948;12.514;2024-02-14T12:26:47;0.77;;;0.40;;
31126;SDS011;17775;57.948;12.514;2024-02-14T12:29:15;0.32;;;0.32;;
31126;SDS011;17775;57.948;12.514;2024-02-14T12:31:43;0.30;;;0.30;;
31126;SDS011;17775;57.948;12.514;2024-02-14T12:34:11;0.32;;;0.32;;
31126;SDS011;17775;57.948;12.514;2024-02-14T12:36:38;0.32;;;0.32;;
31126;SDS011;17775;57.948;12.514;2024-02-14T12:39:06;0.30;;;0.30;;
31126;SDS011;17775;57.948;12.514;2024-02-14T12:41:33;0.63;;;0.30;;
31126;SDS011;17775;57.948;12.514;2024-02-14T12:44:02;0.30;;;0.30;;
31126;SDS011;17775;57.948;12.514;2024-02-14T12:46:28;0.50;;;0.40;;
31126;SDS011;17775;57.948;12.514;2024-02-14T12:48:56;0.30;;;0.30;;
31126;SDS011;17775;57.948;12.514;2024-02-14T12:51:23;0.20;;;0.20;;
31126;SDS011;17775;57.948;12.514;2024-02-14T12:53:55;0.20;;;0.20;;
31126;SDS011;17775;57.948;12.514;2024-02-14T12:56:22;0.20;;;0.20;;
31126;SDS011;17775;57.948;12.514;2024-02-14T12:58:48;0.30;;;0.30;;
31126;SDS011;17775;57.948;12.514;2024-02-14T13:01:15;0.30;;;0.30;;
31126;SDS011;17775;57.948;12.514;2024-02-14T13:03:44;0.28;;;0.28;;
31126;SDS011;17775;57.948;12.514;2024-02-14T13:06:11;0.30;;;0.30;;
31126;SDS011;17775;57.948;12.514;2024-02-14T13:08:38;0.30;;;0.30;;
31126;SDS011;17775;57.948;12.514;2024-02-14T13:11:06;0.30;;;0.30;;
31126;SDS011;17775;57.948;12.514;2024-02-14T13:13:35;0.30;;;0.30;;
31126;SDS011;17775;57.948;12.514;2024-02-14T13:16:02;0.30;;;0.30;;
31126;SDS011;17775;57.948;12.514;2024-02-14T13:18:29;0.40;;;0.40;;
31126;SDS011;17775;57.948;12.514;2024-02-14T13:20:56;0.35;;;0.30;;
31126;SDS011;17775;57.948;12.514;2024-02-14T13:23:29;0.40;;;0.40;;
31126;SDS011;17775;57.948;12.514;2024-02-14T13:25:56;0.35;;;0.35;;
31126;SDS011;17775;57.948;12.514;2024-02-14T13:28:22;0.60;;;0.40;;
31126;SDS011;17775;57.948;12.514;2024-02-14T13:30:49;0.40;;;0.40;;
31126;SDS011;17775;57.948;12.514;2024-02-14T13:33:15;0.45;;;0.40;;
31126;SDS011;17775;57.948;12.514;2024-02-14T13:35:42;0.30;;;0.30;;
31126;SDS011;17775;57.948;12.514;2024-02-14T13:38:08;0.55;;;0.40;;
31126;SDS011;17775;57.948;12.514;2024-02-14T13:40:36;0.30;;;0.30;;
31126;SDS011;17775;57.948;12.514;2024-02-14T13:43:02;0.40;;;0.30;;
31126;SDS011;17775;57.948;12.514;2024-02-14T13:45:39;0.30;;;0.30;;
31126;SDS011;17775;57.948;12.514;2024-02-14T13:48:06;0.30;;;0.30;;
31126;SDS011;17775;57.948;12.514;2024-02-14T13:50:34;0.30;;;0.30;;
31126;SDS011;17775;57.948;12.514;2024-02-14T13:53:00;0.30;;;0.30;;
31126;SDS011;17775;57.948;12.514;2024-02-14T13:55:27;0.28;;;0.28;;
31126;SDS011;17775;57.948;12.514;2024-02-14T13:57:53;0.40;;;0.30;;
31126;SDS011;17775;57.948;12.514;2024-02-14T14:00:20;0.30;;;0.30;;
31126;SDS011;17775;57.948;12.514;2024-02-14T14:02:46;0.28;;;0.28;;
31126;SDS011;17775;57.948;12.514;2024-02-14T14:05:13;0.25;;;0.25;;
31126;SDS011;17775;57.948;12.514;2024-02-14T14:07:43;0.30;;;0.30;;
31126;SDS011;17775;57.948;12.514;2024-02-14T14:10:23;0.30;;;0.30;;
31126;SDS011;17775;57.948;12.514;2024-02-14T14:12:53;0.30;;;0.30;;
31126;SDS011;17775;57.948;12.514;2024-02-14T14:15:19;0.40;;;0.30;;
31126;SDS011;17775;57.948;12.514;2024-02-14T14:17:46;0.30;;;0.30;;
31126;SDS011;17775;57.948;12.514;2024-02-14T14:20:13;0.35;;;0.35;;
31126;SDS011;17775;57.948;12.514;2024-02-14T14:22:39;0.40;;;0.40;;
31126;SDS011;17775;57.948;12.514;2024-02-14T14:25:06;0.30;;;0.30;;
31126;SDS011;17775;57.948;12.514;2024-02-14T14:27:35;0.20;;;0.20;;
31126;SDS011;17775;57.948;12.514;2024-02-14T14:30:01;0.35;;;0.30;;
31126;SDS011;17775;57.948;12.514;2024-02-14T14:32:28;0.20;;;0.20;;
31126;SDS011;17775;57.948;12.514;2024-02-14T14:34:54;0.20;;;0.20;;
31126;SDS011;17775;57.948;12.514;2024-02-14T14:37:21;0.40;;;0.32;;
31126;SDS011;17775;57.948;12.514;2024-02-14T14:39:48;0.45;;;0.40;;
31126;SDS011;17775;57.948;12.514;2024-02-14T14:42:18;0.45;;;0.40;;